Time;durP1;ratioP1;P1;durP2;ratioP2;P2;SDS_P1;SDS_P2;PMS_P1;PMS_P2;Temp;Humidity;BMP_temperature;BMP_pressure;BME280_temperature;BME280_humidity;BME280_pressure;Samples;Min_cycle;Max_cycle;Signal;HPM_P1;HPM_P2
2023/08/24 00:01:24;;;;;;;8.90;8.17;;;20.70;99.90;;;;;;5043506;28;20193;-69
2023/08/24 00:03:49;;;;;;;7.83;7.13;;;20.70;99.90;;;;;;5044083;28;20273;-69
2023/08/24 00:06:16;;;;;;;9.10;8.40;;;20.70;99.90;;;;;;5044732;28;20209;-69
2023/08/24 00:08:43;;;;;;;8.63;7.95;;;20.70;99.90;;;;;;5045027;28;20209;-69
2023/08/24 00:11:11;;;;;;;9.10;8.30;;;20.60;99.90;;;;;;5045025;28;20573;-69
2023/08/24 00:13:37;;;;;;;9.75;8.75;;;20.60;99.90;;;;;;5045700;28;20181;-69
2023/08/24 00:16:04;;;;;;;8.90;8.17;;;20.60;99.90;;;;;;5043226;28;20201;-69
2023/08/24 00:18:29;;;;;;;9.65;8.95;;;20.60;99.90;;;;;;5041075;28;20189;-68
2023/08/24 00:20:56;;;;;;;8.83;8.13;;;20.50;99.90;;;;;;5043860;28;20186;-69
2023/08/24 00:23:21;;;;;;;9.00;8.23;;;20.50;99.90;;;;;;5044538;28;20185;-68
2023/08/24 00:25:47;;;;;;;9.87;8.97;;;20.50;99.90;;;;;;5044436;28;20211;-69
2023/08/24 00:28:12;;;;;;;9.00;8.20;;;20.50;99.90;;;;;;5045808;28;20268;-69
2023/08/24 00:30:38;;;;;;;8.63;7.83;;;20.40;99.90;;;;;;5043218;28;20181;-70
2023/08/24 00:33:04;;;;;;;9.03;8.43;;;20.40;99.90;;;;;;5045100;28;20181;-69
2023/08/24 00:35:30;;;;;;;9.13;8.32;;;20.40;99.90;;;;;;5045460;28;21220;-70
2023/08/24 00:37:56;;;;;;;8.88;8.18;;;20.30;99.90;;;;;;5043712;28;20323;-70
2023/08/24 00:40:22;;;;;;;9.07;8.10;;;20.30;99.90;;;;;;5036805;28;20652;-70
2023/08/24 00:42:47;;;;;;;9.40;8.60;;;20.20;99.90;;;;;;5045991;28;20181;-69
2023/08/24 00:45:13;;;;;;;9.80;9.00;;;20.20;99.90;;;;;;5041299;28;20280;-70
2023/08/24 00:47:41;;;;;;;9.32;8.52;;;20.20;99.90;;;;;;5043934;28;20251;-69
2023/08/24 00:50:08;;;;;;;9.20;8.60;;;20.20;99.90;;;;;;5042303;28;20692;-69
2023/08/24 00:52:36;;;;;;;8.38;7.78;;;20.20;99.90;;;;;;5042548;28;20181;-69
2023/08/24 00:55:03;;;;;;;9.75;8.95;;;20.10;99.90;;;;;;5044617;28;20182;-69
2023/08/24 00:57:29;;;;;;;8.90;8.20;;;20.10;99.90;;;;;;5042445;28;20201;-69
2023/08/24 00:59:58;;;;;;;8.87;7.97;;;20.00;99.90;;;;;;5045009;28;20584;-68
2023/08/24 01:02:24;;;;;;;9.85;9.05;;;20.00;99.90;;;;;;5047439;28;20537;-69
2023/08/24 01:04:50;;;;;;;9.03;8.20;;;20.00;99.90;;;;;;5049523;28;20272;-69
2023/08/24 01:07:16;;;;;;;9.33;8.53;;;20.00;99.90;;;;;;5047192;28;20699;-68
2023/08/24 01:09:59;;;;;;;9.30;8.50;;;20.00;99.90;;;;;;5047098;28;20201;-68
2023/08/24 01:12:56;;;;;;;10.30;9.40;;;19.90;99.90;;;;;;5036703;28;20185;-68
2023/08/24 01:15:38;;;;;;;8.60;8.00;;;20.00;99.90;;;;;;5047798;28;20193;-69
2023/08/24 01:18:08;;;;;;;8.80;8.20;;;20.00;99.90;;;;;;5046380;28;20220;-69
2023/08/24 01:20:36;;;;;;;9.90;9.10;;;20.00;99.90;;;;;;5046873;28;20593;-69
2023/08/24 01:23:32;;;;;;;8.60;8.00;;;20.00;99.90;;;;;;5049643;28;20675;-69
2023/08/24 01:26:05;;;;;;;9.07;8.35;;;20.00;99.90;;;;;;5041093;28;20225;-69
2023/08/24 01:28:31;;;;;;;9.27;8.68;;;20.10;99.90;;;;;;5064229;28;20213;-69
2023/08/24 01:30:56;;;;;;;10.07;9.05;;;20.10;99.90;;;;;;5045489;28;20187;-69
2023/08/24 01:33:22;;;;;;;10.03;8.90;;;20.10;99.90;;;;;;5045251;28;20194;-69
2023/08/24 01:35:48;;;;;;;8.60;8.00;;;20.10;99.90;;;;;;5045872;28;20182;-69
2023/08/24 01:38:15;;;;;;;10.23;9.23;;;20.10;99.90;;;;;;5047699;28;20750;-68
2023/08/24 01:41:16;;;;;;;9.50;8.70;;;20.10;99.90;;;;;;5046146;28;20681;-69
2023/08/24 01:43:45;;;;;;;9.35;8.52;;;20.20;99.90;;;;;;5044801;28;20192;-69
2023/08/24 01:46:17;;;;;;;9.30;8.60;;;20.20;99.90;;;;;;5047553;28;20203;-69
2023/08/24 01:48:44;;;;;;;11.20;8.45;;;20.30;99.90;;;;;;5047601;28;20611;-68
2023/08/24 01:51:10;;;;;;;10.23;9.27;;;20.30;99.90;;;;;;5048397;28;20617;-69
2023/08/24 01:53:36;;;;;;;9.90;9.20;;;20.10;99.90;;;;;;5048333;28;20178;-69
2023/08/24 01:56:15;;;;;;;10.23;9.52;;;20.30;99.90;;;;;;5047111;28;20471;-70
2023/08/24 01:58:41;;;;;;;9.82;9.05;;;20.30;99.90;;;;;;5046337;28;20604;-69
2023/08/24 02:01:10;;;;;;;8.73;8.13;;;20.40;99.90;;;;;;5044572;28;20296;-68
2023/08/24 02:03:36;;;;;;;9.48;8.77;;;20.50;99.90;;;;;;5046999;28;20192;-69
2023/08/24 02:06:02;;;;;;;9.73;9.00;;;20.60;99.90;;;;;;5037534;28;20221;-69
2023/08/24 02:08:27;;;;;;;9.50;8.80;;;20.70;99.90;;;;;;5044565;28;20193;-69
2023/08/24 02:10:54;;;;;;;9.17;8.30;;;20.60;99.90;;;;;;5039653;28;20186;-69
2023/08/24 02:13:19;;;;;;;9.75;8.95;;;20.60;99.90;;;;;;5045058;28;20177;-69
2023/08/24 02:15:45;;;;;;;9.70;8.90;;;20.90;99.90;;;;;;5044487;28;20185;-69
2023/08/24 02:18:11;;;;;;;9.77;8.97;;;20.40;99.90;;;;;;5040698;28;20186;-69
2023/08/24 02:20:40;;;;;;;10.10;9.30;;;20.40;99.90;;;;;;5046680;28;20522;-69
2023/08/24 02:23:05;;;;;;;9.30;8.60;;;20.40;99.90;;;;;;5046473;28;20181;-69
2023/08/24 02:25:31;;;;;;;9.80;8.77;;;20.20;99.90;;;;;;5044866;28;20798;-69
2023/08/24 02:27:57;;;;;;;9.63;8.67;;;20.40;99.90;;;;;;5045841;28;20197;-69
2023/08/24 02:30:23;;;;;;;10.57;9.70;;;20.30;99.90;;;;;;5045582;28;20471;-69
2023/08/24 02:32:49;;;;;;;10.10;9.20;;;20.20;99.90;;;;;;5048864;28;20435;-69
2023/08/24 02:35:15;;;;;;;9.82;8.93;;;20.20;99.90;;;;;;5043856;28;20272;-69
2023/08/24 02:37:40;;;;;;;9.47;8.77;;;20.00;99.90;;;;;;5040520;28;20299;-69
2023/08/24 02:40:08;;;;;;;9.90;9.20;;;20.00;99.90;;;;;;5043511;28;20320;-69
2023/08/24 02:42:34;;;;;;;9.02;8.32;;;19.90;99.90;;;;;;5044120;28;20190;-69
2023/08/24 02:44:59;;;;;;;9.70;8.93;;;19.90;99.90;;;;;;5045249;28;20201;-69
2023/08/24 02:47:25;;;;;;;12.63;9.30;;;19.90;99.90;;;;;;5044534;28;20693;-69
2023/08/24 02:49:51;;;;;;;10.33;9.53;;;19.80;99.90;;;;;;5044724;28;20217;-69
2023/08/24 02:52:17;;;;;;;10.82;9.82;;;19.80;99.90;;;;;;5043933;28;20396;-69
2023/08/24 02:54:43;;;;;;;10.03;9.23;;;19.70;99.90;;;;;;5040781;28;20852;-69
2023/08/24 02:57:09;;;;;;;11.90;10.87;;;19.80;99.90;;;;;;5042863;28;20246;-70
2023/08/24 02:59:34;;;;;;;9.80;9.03;;;19.70;99.90;;;;;;5045004;28;20193;-69
2023/08/24 03:02:00;;;;;;;10.40;9.60;;;19.70;99.90;;;;;;5044402;28;20547;-70
2023/08/24 03:04:26;;;;;;;10.10;9.20;;;19.70;99.90;;;;;;5044753;28;20273;-69
2023/08/24 03:06:51;;;;;;;10.90;9.90;;;19.70;99.90;;;;;;5045437;28;20232;-69
2023/08/24 03:09:17;;;;;;;9.80;9.10;;;19.70;99.90;;;;;;5043822;28;20245;-68
2023/08/24 03:11:43;;;;;;;11.43;10.40;;;19.60;99.90;;;;;;5040655;28;20182;-69
2023/08/24 03:14:08;;;;;;;10.10;9.30;;;19.60;99.90;;;;;;5044577;28;20208;-69
2023/08/24 03:16:34;;;;;;;11.00;9.90;;;19.60;99.90;;;;;;5043642;28;20205;-70
2023/08/24 03:18:59;;;;;;;10.73;9.93;;;19.60;99.90;;;;;;5041485;28;20196;-70
2023/08/24 03:21:25;;;;;;;11.33;10.43;;;19.60;99.90;;;;;;5044301;28;20189;-70
2023/08/24 03:23:51;;;;;;;10.50;9.60;;;19.60;99.90;;;;;;5043401;28;20196;-69
2023/08/24 03:26:16;;;;;;;10.67;9.40;;;19.60;99.90;;;;;;5041180;28;20280;-69
2023/08/24 03:28:43;;;;;;;10.77;9.73;;;19.60;99.90;;;;;;5045479;28;20212;-68
2023/08/24 03:31:08;;;;;;;10.77;9.98;;;19.50;99.90;;;;;;5045708;28;20174;-68
2023/08/24 03:33:34;;;;;;;10.50;9.60;;;19.60;99.90;;;;;;5044644;28;20665;-68
2023/08/24 03:36:00;;;;;;;12.30;11.20;;;19.50;99.90;;;;;;5045315;28;20201;-69
2023/08/24 03:38:27;;;;;;;11.25;10.18;;;19.50;99.90;;;;;;5044503;28;20538;-69
2023/08/24 03:41:03;;;;;;;9.95;9.05;;;19.60;99.90;;;;;;5041524;28;20182;-69
2023/08/24 03:43:32;;;;;;;11.40;10.35;;;19.60;99.90;;;;;;5038001;28;20216;-69
2023/08/24 03:45:57;;;;;;;10.07;9.38;;;19.60;99.90;;;;;;5042254;28;20206;-69
2023/08/24 03:48:23;;;;;;;10.30;9.60;;;19.60;99.90;;;;;;5041740;28;20689;-69
2023/08/24 03:50:48;;;;;;;11.70;9.97;;;19.80;99.90;;;;;;5044137;28;20181;-69
2023/08/24 03:53:14;;;;;;;10.93;10.10;;;19.50;99.90;;;;;;5042769;28;20190;-69
2023/08/24 03:55:39;;;;;;;11.03;10.10;;;19.60;99.90;;;;;;5043767;28;20674;-69
2023/08/24 03:58:05;;;;;;;10.13;9.20;;;19.60;99.90;;;;;;5043892;28;20184;-69
2023/08/24 04:00:31;;;;;;;10.73;9.83;;;19.70;99.90;;;;;;5043263;28;20705;-69
2023/08/24 04:02:56;;;;;;;9.70;8.90;;;19.70;99.90;;;;;;5046213;28;20185;-69
2023/08/24 04:05:22;;;;;;;10.40;9.60;;;19.60;99.90;;;;;;5042053;28;20204;-69
2023/08/24 04:07:48;;;;;;;10.30;9.40;;;19.60;99.90;;;;;;5042072;28;20214;-68
2023/08/24 04:10:13;;;;;;;11.23;10.20;;;19.60;99.90;;;;;;5040915;28;20293;-69
2023/08/24 04:12:39;;;;;;;10.67;9.63;;;19.50;99.90;;;;;;5041582;28;20177;-68
2023/08/24 04:15:05;;;;;;;10.50;9.70;;;19.50;99.90;;;;;;5045337;28;20654;-69
2023/08/24 04:17:31;;;;;;;10.48;9.68;;;19.50;99.90;;;;;;5042965;28;20233;-68
2023/08/24 04:19:56;;;;;;;10.30;9.40;;;19.60;99.90;;;;;;5046107;28;20278;-69
2023/08/24 04:22:22;;;;;;;10.90;10.00;;;19.60;99.90;;;;;;5045565;28;20194;-68
2023/08/24 04:24:48;;;;;;;10.40;9.60;;;19.90;99.90;;;;;;5042559;28;20192;-69
2023/08/24 04:27:14;;;;;;;10.00;9.27;;;19.60;99.90;;;;;;5041314;28;20205;-69
2023/08/24 04:29:40;;;;;;;10.57;9.70;;;19.60;99.90;;;;;;5044206;28;20197;-70
2023/08/24 04:32:06;;;;;;;10.33;9.43;;;19.60;99.90;;;;;;5034201;28;20679;-70
2023/08/24 04:34:34;;;;;;;10.32;9.32;;;19.60;99.90;;;;;;5039499;28;20186;-69
2023/08/24 04:37:01;;;;;;;10.00;9.10;;;19.70;99.90;;;;;;5044853;28;20215;-71
2023/08/24 04:39:26;;;;;;;10.82;9.93;;;19.80;99.90;;;;;;5048363;28;20185;-68
2023/08/24 04:41:52;;;;;;;9.90;9.10;;;20.00;99.90;;;;;;5049462;28;20189;-69
2023/08/24 04:44:18;;;;;;;10.47;9.70;;;19.80;99.90;;;;;;5048563;28;20677;-69
2023/08/24 04:46:43;;;;;;;9.60;8.90;;;19.80;99.90;;;;;;5045251;28;20240;-69
2023/08/24 04:49:09;;;;;;;10.97;9.90;;;19.80;99.90;;;;;;5047956;28;20213;-69
2023/08/24 04:51:34;;;;;;;9.90;8.90;;;20.10;99.90;;;;;;5046984;28;20178;-69
2023/08/24 04:54:00;;;;;;;11.07;9.77;;;19.90;99.90;;;;;;5049109;28;20605;-69
2023/08/24 04:56:26;;;;;;;9.93;9.13;;;19.90;99.90;;;;;;5045615;28;20271;-76
2023/08/24 04:58:56;;;;;;;10.50;9.70;;;19.90;99.90;;;;;;5053907;28;20507;-75
2023/08/24 05:01:31;;;;;;;10.43;9.48;;;20.00;99.90;;;;;;5040628;28;20589;-74
2023/08/24 05:03:57;;;;;;;9.35;8.65;;;19.80;99.90;;;;;;5048659;28;20193;-73
2023/08/24 05:06:22;;;;;;;10.20;9.40;;;20.10;99.90;;;;;;5047465;28;20205;-75
2023/08/24 05:08:48;;;;;;;9.90;9.20;;;20.20;99.90;;;;;;5039677;28;20255;-74
2023/08/24 05:11:17;;;;;;;9.47;8.67;;;20.30;99.90;;;;;;5044052;28;20588;-73
2023/08/24 05:13:44;;;;;;;9.18;8.40;;;20.40;99.90;;;;;;5047280;28;20228;-69
2023/08/24 05:16:10;;;;;;;10.00;8.75;;;20.50;99.90;;;;;;5048362;28;20713;-69
2023/08/24 05:18:36;;;;;;;9.87;8.87;;;20.70;99.90;;;;;;5046178;28;20181;-69
2023/08/24 05:21:05;;;;;;;9.13;8.43;;;20.70;99.90;;;;;;5043153;28;20439;-69
2023/08/24 05:23:32;;;;;;;9.70;8.93;;;20.70;99.90;;;;;;5041495;28;20192;-70
2023/08/24 05:25:58;;;;;;;10.02;9.13;;;20.80;99.90;;;;;;5039061;28;20680;-70
2023/08/24 05:28:25;;;;;;;13.45;9.20;;;20.80;99.90;;;;;;5046665;28;20194;-70
2023/08/24 05:30:52;;;;;;;10.68;9.70;;;20.80;99.90;;;;;;5047294;28;20176;-69
2023/08/24 05:33:18;;;;;;;10.23;9.38;;;20.90;99.90;;;;;;5050090;28;20633;-69
2023/08/24 05:35:43;;;;;;;9.83;9.03;;;20.50;99.90;;;;;;5046202;28;20193;-70
2023/08/24 05:38:09;;;;;;;13.00;10.63;;;21.00;99.90;;;;;;5048712;28;20379;-67
2023/08/24 05:40:35;;;;;;;9.80;9.00;;;21.10;99.90;;;;;;5047357;28;20192;-68
2023/08/24 05:43:00;;;;;;;10.00;9.10;;;21.20;99.90;;;;;;5046031;28;20568;-68
2023/08/24 05:45:26;;;;;;;9.57;8.77;;;21.10;99.90;;;;;;5043136;28;20448;-68
2023/08/24 05:47:52;;;;;;;9.90;9.10;;;21.10;99.90;;;;;;5044166;28;20335;-69
2023/08/24 05:50:17;;;;;;;9.57;8.77;;;21.70;99.90;;;;;;5045032;28;20292;-69
2023/08/24 05:52:43;;;;;;;9.03;8.10;;;21.20;99.90;;;;;;5047747;28;20201;-69
2023/08/24 05:55:08;;;;;;;8.70;8.00;;;21.40;99.90;;;;;;5042493;28;20507;-69
2023/08/24 05:57:34;;;;;;;8.93;8.23;;;21.40;99.90;;;;;;5047410;28;20224;-70
2023/08/24 06:00:00;;;;;;;8.97;8.20;;;21.50;99.90;;;;;;5048442;28;20219;-68
2023/08/24 06:02:25;;;;;;;9.20;8.30;;;21.70;99.90;;;;;;5047372;28;20197;-68
2023/08/24 06:04:51;;;;;;;9.67;8.13;;;21.90;99.90;;;;;;5040929;28;20223;-68
2023/08/24 06:07:17;;;;;;;9.07;8.30;;;22.00;99.90;;;;;;5043833;28;20343;-70
2023/08/24 06:09:42;;;;;;;9.40;8.30;;;21.90;99.90;;;;;;5040383;28;20201;-76
2023/08/24 06:12:08;;;;;;;8.30;7.60;;;22.10;99.90;;;;;;5039866;28;20440;-69
2023/08/24 06:14:34;;;;;;;8.00;7.37;;;22.30;99.90;;;;;;5042946;28;20792;-70
2023/08/24 06:16:59;;;;;;;8.40;7.70;;;22.40;99.90;;;;;;5043295;28;20607;-63
2023/08/24 06:19:25;;;;;;;8.20;7.60;;;22.60;99.90;;;;;;5047517;28;20200;-63
2023/08/24 06:21:50;;;;;;;8.73;7.90;;;22.70;99.90;;;;;;5048000;28;20282;-63
2023/08/24 06:24:16;;;;;;;12.23;8.27;;;22.80;99.90;;;;;;5047920;28;20221;-65
2023/08/24 06:26:42;;;;;;;9.20;8.40;;;22.80;99.90;;;;;;5043109;28;20206;-65
2023/08/24 06:29:07;;;;;;;8.80;7.70;;;23.00;99.90;;;;;;5045606;28;20212;-64
2023/08/24 06:31:33;;;;;;;8.13;7.40;;;23.10;99.90;;;;;;5045724;28;20186;-65
2023/08/24 06:33:59;;;;;;;8.83;7.90;;;23.30;99.90;;;;;;5044176;28;20181;-65
2023/08/24 06:36:24;;;;;;;8.30;6.67;;;23.30;99.90;;;;;;5045552;28;20214;-64
2023/08/24 06:38:51;;;;;;;8.90;7.50;;;23.40;99.90;;;;;;5044842;28;20181;-64
2023/08/24 06:41:16;;;;;;;8.20;7.50;;;23.40;99.90;;;;;;5044503;28;20200;-64
2023/08/24 06:43:42;;;;;;;8.63;7.80;;;23.50;99.90;;;;;;5041086;28;20444;-68
2023/08/24 06:46:08;;;;;;;8.00;7.37;;;23.30;99.90;;;;;;5043393;28;20201;-69
2023/08/24 06:48:34;;;;;;;9.30;8.40;;;23.30;99.90;;;;;;5047408;28;20181;-68
2023/08/24 06:51:00;;;;;;;8.13;7.33;;;23.40;99.90;;;;;;5042227;28;20243;-70
2023/08/24 06:53:25;;;;;;;8.10;7.40;;;23.40;99.90;;;;;;5038812;28;20968;-69
2023/08/24 06:55:58;;;;;;;8.10;7.40;;;23.40;99.90;;;;;;5040999;28;20525;-67
2023/08/24 06:58:24;;;;;;;7.70;6.83;;;23.50;99.90;;;;;;5044799;28;20648;-68
2023/08/24 07:00:54;;;;;;;8.20;7.57;;;23.50;99.90;;;;;;5045182;28;20464;-68
2023/08/24 07:03:19;;;;;;;8.57;7.80;;;23.50;99.90;;;;;;5044508;28;21002;-69
2023/08/24 07:05:46;;;;;;;8.00;7.13;;;23.60;99.90;;;;;;5044961;28;20440;-69
2023/08/24 07:08:12;;;;;;;7.30;6.80;;;23.70;99.90;;;;;;5045100;28;20221;-68
2023/08/24 07:10:38;;;;;;;7.87;7.10;;;23.80;99.90;;;;;;5046321;28;20498;-68
2023/08/24 07:13:07;;;;;;;7.93;7.33;;;23.80;99.90;;;;;;5048479;28;20960;-70
2023/08/24 07:15:34;;;;;;;8.67;7.10;;;23.90;99.90;;;;;;5041197;28;20190;-66
2023/08/24 07:18:01;;;;;;;8.33;7.53;;;24.30;99.90;;;;;;5037104;28;20508;-69
2023/08/24 07:20:27;;;;;;;8.33;7.50;;;24.40;99.90;;;;;;5043904;28;20816;-67
2023/08/24 07:22:53;;;;;;;7.13;6.53;;;25.80;98.20;;;;;;5044554;28;20457;-68
2023/08/24 07:25:21;;;;;;;8.77;7.93;;;26.40;96.30;;;;;;5039868;28;20227;-68
2023/08/24 07:27:47;;;;;;;7.93;7.27;;;26.50;95.50;;;;;;5044854;28;20823;-67
2023/08/24 07:30:13;;;;;;;8.57;7.77;;;26.40;95.40;;;;;;5043737;28;20480;-67
2023/08/24 07:32:39;;;;;;;8.00;7.40;;;27.20;94.70;;;;;;5046081;28;20178;-67
2023/08/24 07:35:06;;;;;;;8.60;7.70;;;28.00;93.20;;;;;;5045451;28;20451;-67
2023/08/24 07:37:32;;;;;;;8.03;7.33;;;28.10;92.50;;;;;;5039956;28;20209;-67
2023/08/24 07:39:57;;;;;;;10.40;7.97;;;27.90;92.70;;;;;;5042595;28;20442;-68
2023/08/24 07:42:23;;;;;;;8.40;7.80;;;28.30;92.80;;;;;;5041952;28;20181;-67
2023/08/24 07:44:49;;;;;;;8.03;7.50;;;28.50;91.70;;;;;;5041055;28;20549;-68
2023/08/24 07:47:15;;;;;;;35.93;13.10;;;29.50;90.60;;;;;;5042688;28;20546;-69
2023/08/24 07:49:44;;;;;;;11.30;9.83;;;31.10;85.80;;;;;;5044496;28;20891;-68
2023/08/24 07:52:11;;;;;;;42.13;10.83;;;32.00;81.00;;;;;;5045012;28;20447;-67
2023/08/24 07:54:36;;;;;;;8.20;7.17;;;32.60;77.50;;;;;;5042361;28;20442;-68
2023/08/24 07:57:02;;;;;;;9.20;8.40;;;34.30;72.60;;;;;;5040123;28;20463;-67
2023/08/24 07:59:28;;;;;;;10.27;8.50;;;34.70;67.40;;;;;;5046380;28;20193;-68
2023/08/24 08:01:53;;;;;;;9.10;8.20;;;35.00;66.20;;;;;;5045068;28;20193;-68
2023/08/24 08:04:19;;;;;;;9.30;8.50;;;35.50;63.90;;;;;;5044634;28;20217;-68
2023/08/24 08:06:44;;;;;;;10.47;9.53;;;35.30;63.00;;;;;;5044567;28;20193;-68
2023/08/24 08:09:10;;;;;;;10.30;9.27;;;35.50;60.50;;;;;;5042636;28;20210;-68
2023/08/24 08:11:36;;;;;;;9.20;8.30;;;35.70;60.50;;;;;;5042521;28;20196;-67
2023/08/24 08:14:02;;;;;;;13.07;8.70;;;35.90;60.50;;;;;;5044096;28;20806;-68
2023/08/24 08:16:27;;;;;;;9.47;8.50;;;35.80;58.90;;;;;;5046077;28;20206;-69
2023/08/24 08:18:53;;;;;;;8.97;8.03;;;34.90;60.50;;;;;;5049325;28;20193;-68
2023/08/24 08:21:19;;;;;;;8.53;7.67;;;33.80;62.50;;;;;;5045837;28;20208;-68
2023/08/24 08:23:47;;;;;;;10.33;9.30;;;33.50;63.50;;;;;;5041061;28;20177;-68
2023/08/24 08:26:16;;;;;;;9.03;7.20;;;34.20;63.40;;;;;;5036880;28;20679;-67
2023/08/24 08:28:42;;;;;;;9.97;7.07;;;35.00;61.10;;;;;;5043577;28;20436;-68
2023/08/24 08:31:07;;;;;;;7.40;6.70;;;36.20;58.50;;;;;;5041989;28;21033;-68
2023/08/24 08:33:33;;;;;;;8.27;7.57;;;36.40;57.00;;;;;;5041881;28;20730;-70
2023/08/24 08:35:59;;;;;;;7.77;7.17;;;37.20;56.10;;;;;;5040825;28;20197;-69
2023/08/24 08:38:27;;;;;;;7.23;6.67;;;37.60;54.80;;;;;;5039499;28;20177;-68
2023/08/24 08:41:03;;;;;;;8.30;7.60;;;38.10;53.20;;;;;;5038813;28;20181;-70
2023/08/24 08:43:30;;;;;;;7.30;6.70;;;38.70;51.00;;;;;;5058361;28;20779;-70
2023/08/24 08:45:56;;;;;;;7.63;7.03;;;37.90;52.00;;;;;;5039058;28;20586;-70
2023/08/24 08:48:23;;;;;;;7.13;6.57;;;38.30;52.00;;;;;;5042550;28;20436;-69
2023/08/24 08:50:59;;;;;;;6.50;6.00;;;38.10;51.30;;;;;;5040797;28;20610;-69
2023/08/24 08:53:25;;;;;;;8.33;7.73;;;38.40;51.10;;;;;;5045814;28;20462;-73
2023/08/24 08:55:55;;;;;;;8.50;7.90;;;37.60;51.70;;;;;;5042231;28;20435;-71
2023/08/24 08:58:21;;;;;;;7.20;6.60;;;38.20;50.20;;;;;;5043822;28;20181;-69
2023/08/24 09:00:48;;;;;;;7.23;6.60;;;39.00;50.20;;;;;;5043348;28;20455;-69
2023/08/24 09:03:17;;;;;;;7.67;6.80;;;39.40;49.20;;;;;;5041726;28;20447;-70
2023/08/24 09:05:42;;;;;;;7.17;6.57;;;39.30;48.10;;;;;;5038204;28;20447;-71
2023/08/24 09:08:09;;;;;;;9.57;8.63;;;40.00;47.50;;;;;;5041930;28;20520;-71
2023/08/24 09:10:34;;;;;;;8.37;6.50;;;39.80;47.10;;;;;;5037423;28;20205;-70
2023/08/24 09:13:00;;;;;;;7.90;7.10;;;40.70;46.20;;;;;;5041126;28;20448;-71
2023/08/24 09:15:27;;;;;;;7.17;6.57;;;40.00;45.00;;;;;;5041008;28;20196;-71
2023/08/24 09:17:56;;;;;;;7.53;6.93;;;38.30;48.70;;;;;;5043946;28;20209;-70
2023/08/24 09:20:22;;;;;;;8.80;7.97;;;37.80;49.20;;;;;;5041812;28;20443;-70
2023/08/24 09:22:47;;;;;;;8.30;7.03;;;35.60;52.00;;;;;;5047474;28;20448;-69
2023/08/24 09:25:13;;;;;;;9.83;9.03;;;34.90;54.20;;;;;;5061544;28;20470;-70
2023/08/24 09:27:38;;;;;;;8.47;7.67;;;33.50;56.70;;;;;;5044868;28;20567;-71
2023/08/24 09:30:07;;;;;;;7.73;7.10;;;33.00;57.70;;;;;;5041516;28;20198;-70
2023/08/24 09:32:33;;;;;;;9.77;8.77;;;32.50;59.60;;;;;;5046112;28;20176;-71
2023/08/24 09:35:11;;;;;;;8.83;6.90;;;32.00;61.80;;;;;;5045793;28;20447;-71
2023/08/24 09:37:38;;;;;;;8.30;6.93;;;31.40;63.20;;;;;;5044559;28;20229;-69
2023/08/24 09:40:08;;;;;;;7.30;6.63;;;31.20;65.20;;;;;;5046385;28;20455;-71
2023/08/24 09:42:43;;;;;;;7.53;6.90;;;31.10;65.70;;;;;;5040947;28;20459;-71
2023/08/24 09:45:12;;;;;;;8.97;8.00;;;31.00;66.80;;;;;;5047443;28;20441;-71
2023/08/24 09:47:38;;;;;;;7.70;7.00;;;30.70;67.90;;;;;;5044409;28;20571;-70
2023/08/24 09:50:05;;;;;;;7.93;7.27;;;30.60;68.40;;;;;;5047463;28;20551;-68
2023/08/24 09:52:36;;;;;;;8.00;7.40;;;30.40;69.60;;;;;;5049236;28;20803;-70
2023/08/24 09:55:07;;;;;;;10.80;7.80;;;30.60;69.40;;;;;;5044971;28;20440;-72
2023/08/24 09:57:39;;;;;;;8.30;7.63;;;30.50;71.00;;;;;;5042698;28;20474;-69
2023/08/24 10:00:10;;;;;;;8.20;7.43;;;30.30;71.40;;;;;;5043748;28;20470;-70
2023/08/24 10:02:57;;;;;;;10.60;9.70;;;30.30;71.60;;;;;;5051862;28;20444;-69
2023/08/24 10:05:27;;;;;;;9.50;8.70;;;30.40;71.90;;;;;;5045719;28;20968;-68
2023/08/24 10:07:55;;;;;;;7.73;7.13;;;30.40;71.90;;;;;;5045391;28;20459;-69
2023/08/24 10:10:24;;;;;;;7.90;7.30;;;30.30;72.40;;;;;;5042197;28;21441;-70
2023/08/24 10:12:59;;;;;;;8.07;7.47;;;30.40;73.30;;;;;;5046350;28;20445;-69
2023/08/24 10:15:26;;;;;;;16.43;15.00;;;30.50;73.30;;;;;;5047251;28;20536;-69
2023/08/24 10:17:53;;;;;;;10.10;9.07;;;30.20;74.00;;;;;;5044719;28;20455;-70
2023/08/24 10:20:22;;;;;;;11.30;10.27;;;30.20;74.40;;;;;;5043860;28;20451;-69
2023/08/24 10:22:48;;;;;;;9.03;8.07;;;30.20;75.40;;;;;;5046490;28;20436;-70
2023/08/24 10:25:16;;;;;;;8.43;7.63;;;30.50;74.50;;;;;;5045882;28;20444;-69
2023/08/24 10:27:43;;;;;;;8.43;7.63;;;30.50;74.70;;;;;;5046138;28;20565;-70
2023/08/24 10:30:13;;;;;;;8.30;7.60;;;30.70;74.20;;;;;;5046030;28;20484;-70
2023/08/24 10:32:41;;;;;;;9.03;8.33;;;30.70;74.20;;;;;;5043335;28;20772;-70
2023/08/24 10:35:07;;;;;;;8.53;7.83;;;30.70;74.90;;;;;;5041538;28;20835;-69
2023/08/24 10:37:36;;;;;;;8.40;7.53;;;30.90;74.80;;;;;;5046596;28;20464;-69
2023/08/24 10:40:04;;;;;;;8.13;7.53;;;31.10;74.30;;;;;;5041260;28;21156;-69
2023/08/24 10:42:44;;;;;;;9.60;8.70;;;31.20;75.10;;;;;;5046000;28;20486;-69
2023/08/24 10:45:11;;;;;;;8.07;7.43;;;31.50;73.80;;;;;;5044688;28;20497;-70
2023/08/24 10:47:48;;;;;;;8.43;7.73;;;31.60;73.30;;;;;;5044132;28;20486;-69
2023/08/24 10:50:14;;;;;;;9.87;9.00;;;31.80;73.20;;;;;;5025736;28;20909;-69
2023/08/24 10:52:43;;;;;;;8.30;7.40;;;31.90;73.10;;;;;;5046291;28;20482;-69
2023/08/24 10:55:24;;;;;;;8.10;7.50;;;32.00;73.50;;;;;;5040776;28;20847;-69
2023/08/24 10:57:58;;;;;;;8.13;7.53;;;32.20;72.90;;;;;;5044296;28;20459;-69
2023/08/24 11:00:29;;;;;;;7.80;7.10;;;32.40;72.90;;;;;;5046109;28;20462;-72
2023/08/24 11:02:55;;;;;;;8.20;7.60;;;32.60;72.80;;;;;;5044768;28;20468;-68
2023/08/24 11:05:30;;;;;;;8.40;7.70;;;32.70;72.20;;;;;;5038954;28;20512;-68
2023/08/24 11:08:04;;;;;;;9.23;8.40;;;32.70;71.90;;;;;;5038674;28;20534;-69
2023/08/24 11:10:42;;;;;;;8.73;7.90;;;32.50;72.60;;;;;;5040112;28;21131;-70
2023/08/24 11:13:16;;;;;;;8.70;8.10;;;32.80;72.90;;;;;;5041574;28;21059;-71
2023/08/24 11:15:47;;;;;;;9.03;8.33;;;33.10;72.50;;;;;;5042518;28;20447;-70
2023/08/24 11:18:31;;;;;;;10.30;8.63;;;33.30;72.30;;;;;;5042406;28;20972;-69
2023/08/24 11:21:01;;;;;;;9.07;8.13;;;33.40;71.40;;;;;;5039859;28;20443;-67
2023/08/24 11:23:27;;;;;;;8.37;7.67;;;33.40;71.50;;;;;;5037238;28;20851;-66
2023/08/24 11:25:57;;;;;;;9.27;8.57;;;33.40;72.10;;;;;;5042402;28;20534;-68
2023/08/24 11:28:26;;;;;;;8.53;7.77;;;33.20;71.50;;;;;;5051222;28;20199;-66
2023/08/24 11:30:53;;;;;;;8.67;7.90;;;33.50;72.20;;;;;;5040348;28;20476;-68
2023/08/24 11:33:32;;;;;;;8.50;7.90;;;33.70;71.10;;;;;;5041123;28;20439;-70
2023/08/24 11:35:59;;;;;;;10.60;8.20;;;33.60;71.40;;;;;;5041232;28;20471;-66
2023/08/24 11:38:25;;;;;;;9.50;8.70;;;33.50;71.50;;;;;;5044791;28;20470;-66
2023/08/24 11:40:50;;;;;;;9.10;8.40;;;33.50;71.60;;;;;;5042074;28;20448;-67
2023/08/24 11:43:25;;;;;;;8.47;7.73;;;33.40;72.70;;;;;;5039225;28;20213;-66
2023/08/24 11:45:51;;;;;;;8.20;7.50;;;33.40;72.10;;;;;;5046051;28;20723;-65
2023/08/24 11:48:17;;;;;;;9.00;7.73;;;33.30;71.80;;;;;;5044724;28;20459;-64
2023/08/24 11:50:42;;;;;;;8.40;7.80;;;33.30;73.20;;;;;;5039543;28;20253;-64
2023/08/24 11:53:08;;;;;;;8.20;7.60;;;33.40;72.90;;;;;;5041627;28;20195;-66
2023/08/24 11:55:33;;;;;;;8.67;8.03;;;33.50;73.10;;;;;;5041925;28;20181;-66
2023/08/24 11:58:00;;;;;;;8.70;8.00;;;33.50;72.30;;;;;;5042991;28;20218;-64
2023/08/24 12:00:26;;;;;;;8.80;8.10;;;33.60;73.10;;;;;;5044918;28;20295;-65
2023/08/24 12:02:52;;;;;;;8.27;7.50;;;33.60;72.80;;;;;;5042593;28;20436;-66
2023/08/24 12:05:23;;;;;;;9.50;8.53;;;33.60;69.30;;;;;;5040245;28;20471;-65
2023/08/24 12:07:50;;;;;;;9.10;7.97;;;33.70;69.70;;;;;;5040305;28;20495;-65
2023/08/24 12:10:16;;;;;;;10.97;7.33;;;33.90;69.30;;;;;;5039949;28;21052;-66
2023/08/24 12:12:42;;;;;;;8.93;8.10;;;34.00;69.90;;;;;;5040403;28;20468;-65
2023/08/24 12:15:14;;;;;;;10.23;7.77;;;34.00;69.70;;;;;;5038062;28;20178;-67
2023/08/24 12:17:44;;;;;;;8.90;7.87;;;33.80;69.40;;;;;;5044167;28;20205;-66
2023/08/24 12:20:23;;;;;;;8.40;7.80;;;34.00;70.00;;;;;;5043033;28;20450;-66
2023/08/24 12:22:51;;;;;;;8.60;7.90;;;33.90;71.70;;;;;;5043318;28;20454;-65
2023/08/24 12:25:16;;;;;;;8.83;8.03;;;33.80;70.90;;;;;;5042161;28;20444;-64
2023/08/24 12:27:42;;;;;;;9.93;7.83;;;33.70;70.90;;;;;;5043121;28;20882;-66
2023/08/24 12:30:10;;;;;;;9.93;8.83;;;33.70;71.10;;;;;;5040775;28;20212;-66
2023/08/24 12:32:50;;;;;;;9.80;8.70;;;33.70;70.20;;;;;;5043150;28;20217;-66
2023/08/24 12:35:16;;;;;;;9.43;8.30;;;33.50;70.80;;;;;;5045269;28;20535;-66
2023/08/24 12:37:42;;;;;;;7.77;7.07;;;33.60;70.80;;;;;;5043751;28;20546;-66
2023/08/24 12:40:07;;;;;;;9.20;8.30;;;33.70;70.80;;;;;;5042186;28;20448;-66
2023/08/24 12:42:34;;;;;;;9.27;7.77;;;33.70;70.70;;;;;;5044272;28;20220;-66
2023/08/24 12:44:59;;;;;;;8.40;7.63;;;33.70;70.80;;;;;;5044237;28;20451;-66